ASY223 YBOK-YAMB
Flight info
| Callsign | ASY223 |
|---|---|
| Flight time | N/A |
| Altitude | 24000 |
| Route | YBOK DCT DONNO DCT YAMB |
| Aircraft | C17C/H-SDE3FGHIRWYLB1/LB1 |
Departure
| Time | 2026-05-06 12:45 |
|---|---|
| Airport | Oakey Army Aviation Centre (YBOK) |
Arrival
| Time | N/A |
|---|---|
| Airport | RAAF Base Amberley (YAMB) |
| Time | Latitude | Longitude | Altitude | Speed | Heading |
|---|---|---|---|---|---|
| 2026-05-06 12:41 | -27.40291 | 151.73729 | 1341 ft | 0 kts | 145° |
| 2026-05-06 12:45 | -27.40306 | 151.73742 | 1334 ft | 19 kts | 145° |
| 2026-05-06 12:45 | -27.40707 | 151.74057 | 1337 ft | 122 kts | 145° |
| 2026-05-06 12:45 | -27.41980 | 151.75786 | 3244 ft | 133 kts | 104° |
| 2026-05-06 12:46 | -27.42321 | 151.76865 | 4108 ft | 171 kts | 110° |
| 2026-05-06 12:46 | -27.42813 | 151.78305 | 4769 ft | 221 kts | 111° |
| 2026-05-06 12:46 | -27.43398 | 151.80032 | 5947 ft | 247 kts | 111° |
| 2026-05-06 12:46 | -27.43998 | 151.81893 | 7496 ft | 256 kts | 110° |
| 2026-05-06 12:47 | -27.44595 | 151.83766 | 9359 ft | 249 kts | 110° |
| 2026-05-06 12:47 | -27.45152 | 151.85527 | 11335 ft | 226 kts | 110° |
| 2026-05-06 12:47 | -27.45645 | 151.87106 | 13142 ft | 203 kts | 108° |
| 2026-05-06 12:47 | -27.46090 | 151.88549 | 14440 ft | 189 kts | 108° |
| 2026-05-06 12:48 | -27.46531 | 151.89957 | 15194 ft | 198 kts | 108° |
| 2026-05-06 12:48 | -27.47034 | 151.91553 | 15575 ft | 231 kts | 108° |
| 2026-05-06 12:48 | -27.47589 | 151.93344 | 16297 ft | 250 kts | 108° |
| 2026-05-06 12:48 | -27.48161 | 151.95202 | 17423 ft | 246 kts | 108° |
| 2026-05-06 12:49 | -27.48698 | 151.96935 | 18830 ft | 222 kts | 108° |
| 2026-05-06 12:49 | -27.49193 | 151.98518 | 19671 ft | 223 kts | 108° |
| 2026-05-06 12:49 | -27.49756 | 152.00326 | 19743 ft | 263 kts | 108° |
| 2026-05-06 12:49 | -27.50387 | 152.02369 | 20300 ft | 279 kts | 108° |
| 2026-05-06 12:50 | -27.51013 | 152.04404 | 21294 ft | 276 kts | 108° |
| 2026-05-06 12:50 | -27.51624 | 152.06396 | 22466 ft | 260 kts | 108° |
| 2026-05-06 12:50 | -27.52205 | 152.08279 | 23415 ft | 256 kts | 108° |
| 2026-05-06 12:50 | -27.52817 | 152.10265 | 23687 ft | 279 kts | 108° |
| 2026-05-06 12:51 | -27.53468 | 152.12393 | 24110 ft | 292 kts | 108° |
| 2026-05-06 12:51 | -27.54135 | 152.14583 | 24735 ft | 297 kts | 108° |
| 2026-05-06 12:51 | -27.54802 | 152.16770 | 25516 ft | 291 kts | 108° |
| 2026-05-06 12:51 | -27.55456 | 152.18911 | 26226 ft | 291 kts | 108° |
| 2026-05-06 12:52 | -27.56165 | 152.21200 | 26215 ft | 331 kts | 109° |
| 2026-05-06 12:52 | -27.56967 | 152.23791 | 26247 ft | 370 kts | 109° |
| 2026-05-06 12:52 | -27.57859 | 152.26669 | 26289 ft | 410 kts | 109° |
| 2026-05-06 12:52 | -27.58848 | 152.29868 | 26310 ft | 447 kts | 109° |
| 2026-05-06 12:53 | -27.59879 | 152.33205 | 25483 ft | 459 kts | 109° |
| 2026-05-06 12:53 | -27.60927 | 152.36596 | 24173 ft | 466 kts | 108° |
| 2026-05-06 12:53 | -27.61971 | 152.39971 | 22521 ft | 438 kts | 108° |
| 2026-05-06 12:53 | -27.62940 | 152.43090 | 21081 ft | 406 kts | 108° |
| 2026-05-06 12:54 | -27.63846 | 152.46017 | 19436 ft | 385 kts | 108° |
| 2026-05-06 12:54 | -27.64659 | 152.48858 | 17499 ft | 375 kts | 106° |
| 2026-05-06 12:54 | -27.65344 | 152.51643 | 15628 ft | 361 kts | 103° |
| 2026-05-06 12:54 | -27.65915 | 152.54370 | 13938 ft | 360 kts | 101° |
| 2026-05-06 12:55 | -27.66377 | 152.57149 | 12839 ft | 348 kts | 99° |
| 2026-05-06 12:55 | -27.66744 | 152.59695 | 12697 ft | 310 kts | 97° |
| 2026-05-06 12:55 | -27.67007 | 152.62036 | 11968 ft | 299 kts | 95° |
| 2026-05-06 12:55 | -27.67200 | 152.64345 | 11460 ft | 284 kts | 94° |
| 2026-05-06 12:56 | -27.67368 | 152.66494 | 11052 ft | 268 kts | 94° |
| 2026-05-06 12:56 | -27.67532 | 152.68545 | 10651 ft | 255 kts | 95° |
| 2026-05-06 12:56 | -27.67681 | 152.70518 | 10062 ft | 253 kts | 93° |
| 2026-05-06 12:56 | -27.67669 | 152.72439 | 9875 ft | 231 kts | 86° |
| 2026-05-06 12:57 | -27.67326 | 152.74065 | 9861 ft | 202 kts | 58° |
| 2026-05-06 12:57 | -27.66256 | 152.75106 | 8910 ft | 216 kts | 20° |
| 2026-05-06 12:57 | -27.64699 | 152.75265 | 7477 ft | 245 kts | 349° |
| 2026-05-06 12:57 | -27.63083 | 152.74642 | 5795 ft | 230 kts | 331° |
| 2026-05-06 12:58 | -27.61820 | 152.73680 | 4032 ft | 212 kts | 320° |
| 2026-05-06 12:58 | -27.60749 | 152.72745 | 3258 ft | 177 kts | 320° |
| 2026-05-06 12:58 | -27.60098 | 152.71791 | 2784 ft | 133 kts | 319° |